Airport View

Enter AWOS ICAO identifier for current METAR.

ex. KFNL

KLKR 031535Z AUTO 00000KT 10SM CLR 30/20 A3000 RMK AO2

3 Jul 2020 15:43

Frequency: 120.825

Phone: 803-286-6444

Other Area AWOS: KDCM - KUZA - KEQY - KFDW

TAF AMD KCLT 031355Z 0314/0418 01004KT P6SM FEW060 FEW250 FM031700 06005KT P6SM FEW070 SCT250 FM040000 13003KT P6SM FEW250 FM041300 29003KT P6SM FEW080